Time;durP1;ratioP1;P1;durP2;ratioP2;P2;SDS_P1;SDS_P2;PMS_P1;PMS_P2;Temp;Humidity;BMP_temperature;BMP_pressure;BME280_temperature;BME280_humidity;BME280_pressure;Samples;Min_cycle;Max_cycle;Signal;HPM_P1;HPM_P2
2024/01/20 00:01:27;;;;;;;;;;;1.40;99.90;;;;;;5041235;28;20415;-59
2024/01/20 00:03:52;;;;;;;;;;;1.40;99.90;;;;;;5024348;28;20433;-59
2024/01/20 00:06:18;;;;;;;;;;;1.40;99.90;;;;;;5044847;28;19957;-59
2024/01/20 00:08:43;;;;;;;;;;;1.30;99.90;;;;;;5043549;28;19920;-59
2024/01/20 00:11:09;;;;;;;;;;;1.30;99.90;;;;;;5029710;28;20406;-59
2024/01/20 00:13:34;;;;;;;;;;;1.20;99.90;;;;;;5035334;28;19920;-59
2024/01/20 00:16:00;;;;;;;;;;;1.20;99.90;;;;;;5027199;28;19933;-59
2024/01/20 00:18:26;;;;;;;;;;;1.10;99.90;;;;;;5032736;28;19924;-59
2024/01/20 00:20:51;;;;;;;;;;;1.10;99.90;;;;;;5049879;28;20387;-58
2024/01/20 00:23:17;;;;;;;;;;;1.10;99.90;;;;;;5036282;28;19924;-59
2024/01/20 00:25:42;;;;;;;;;;;1.00;99.90;;;;;;5054053;28;19931;-58
2024/01/20 00:28:08;;;;;;;;;;;1.00;99.90;;;;;;5052098;28;19920;-59
2024/01/20 00:30:34;;;;;;;;;;;0.90;99.90;;;;;;5030578;28;20512;-58
2024/01/20 00:32:59;;;;;;;;;;;0.90;99.90;;;;;;5053488;28;19976;-58
2024/01/20 00:35:25;;;;;;;;;;;0.90;99.90;;;;;;5050396;28;19935;-59
2024/01/20 00:37:50;;;;;;;;;;;0.90;99.90;;;;;;5031481;28;19961;-59
2024/01/20 00:40:16;;;;;;;;;;;0.90;99.90;;;;;;5042394;28;19931;-58
2024/01/20 00:42:41;;;;;;;;;;;0.90;99.90;;;;;;5023982;28;20019;-59
2024/01/20 00:45:10;;;;;;;;;;;0.90;99.90;;;;;;5046409;28;20027;-59
2024/01/20 00:47:36;;;;;;;;;;;0.90;99.90;;;;;;5040765;28;19928;-60
2024/01/20 00:50:04;;;;;;;;;;;0.90;99.90;;;;;;5022107;28;22605;-59
2024/01/20 00:52:29;;;;;;;;;;;0.90;99.90;;;;;;5020874;28;19940;-59
2024/01/20 00:54:55;;;;;;;;;;;0.90;99.90;;;;;;5040299;28;19928;-59
2024/01/20 00:57:20;;;;;;;;;;;0.90;99.90;;;;;;5023181;28;19924;-59
2024/01/20 00:59:46;;;;;;;;;;;0.90;99.90;;;;;;5039577;28;19935;-58
2024/01/20 01:02:12;;;;;;;;;;;0.90;99.90;;;;;;5022662;28;19924;-59
2024/01/20 01:04:38;;;;;;;;;;;0.90;99.90;;;;;;5019080;28;21407;-59
2024/01/20 01:07:03;;;;;;;;;;;0.90;99.90;;;;;;5043616;28;20375;-59
2024/01/20 01:09:29;;;;;;;;;;;0.90;99.90;;;;;;5031606;28;19933;-60
2024/01/20 01:11:54;;;;;;;;;;;0.90;99.90;;;;;;5051894;28;19945;-59
2024/01/20 01:14:20;;;;;;;;;;;1.00;99.90;;;;;;5034495;28;20016;-59
2024/01/20 01:16:46;;;;;;;;;;;1.00;99.90;;;;;;5029915;28;19979;-59
2024/01/20 01:19:12;;;;;;;;;;;1.00;99.90;;;;;;5032600;28;20023;-59
2024/01/20 01:21:37;;;;;;;;;;;1.00;99.90;;;;;;5026562;28;19931;-60
2024/01/20 01:24:03;;;;;;;;;;;1.00;99.90;;;;;;5042958;28;19963;-59
2024/01/20 01:26:29;;;;;;;;;;;1.00;99.90;;;;;;5019085;28;19964;-59
2024/01/20 01:28:54;;;;;;;;;;;1.00;99.90;;;;;;5040010;28;20016;-60
2024/01/20 01:31:20;;;;;;;;;;;1.00;99.90;;;;;;5035722;28;19924;-57
2024/01/20 01:33:45;;;;;;;;;;;1.00;99.90;;;;;;5020886;28;20504;-59
2024/01/20 01:36:11;;;;;;;;;;;1.00;99.90;;;;;;5022054;28;20383;-59
2024/01/20 01:38:37;;;;;;;;;;;1.00;99.90;;;;;;5038880;28;19985;-58
2024/01/20 01:41:02;;;;;;;;;;;1.10;99.90;;;;;;5018850;28;19929;-60
2024/01/20 01:43:28;;;;;;;;;;;1.00;99.90;;;;;;5043457;28;20310;-59
2024/01/20 01:45:54;;;;;;;;;;;1.10;99.90;;;;;;5045320;28;20390;-59
2024/01/20 01:48:20;;;;;;;;;;;1.10;99.90;;;;;;5045510;28;20383;-57
2024/01/20 01:50:46;;;;;;;;;;;1.00;99.90;;;;;;5041916;28;20016;-59
2024/01/20 01:53:12;;;;;;;;;;;1.00;99.90;;;;;;5039906;28;20439;-59
2024/01/20 01:55:38;;;;;;;;;;;1.10;99.90;;;;;;5045385;28;20447;-59
2024/01/20 01:58:04;;;;;;;;;;;1.00;99.90;;;;;;5046592;28;20012;-60
2024/01/20 02:00:29;;;;;;;;;;;1.00;99.90;;;;;;5044443;28;19986;-60
2024/01/20 02:02:55;;;;;;;;;;;1.00;99.90;;;;;;5030379;28;19924;-59
2024/01/20 02:05:21;;;;;;;;;;;1.00;99.90;;;;;;5047075;28;19951;-59
2024/01/20 02:07:47;;;;;;;;;;;1.00;99.90;;;;;;5041344;28;20649;-59
2024/01/20 02:10:14;;;;;;;;;;;1.00;99.90;;;;;;5043410;28;20014;-59
2024/01/20 02:12:40;;;;;;;;;;;1.00;99.90;;;;;;5036811;28;19959;-59
2024/01/20 02:15:06;;;;;;;;;;;1.00;99.90;;;;;;5025736;28;20411;-59
2024/01/20 02:17:32;;;;;;;;;;;1.00;99.90;;;;;;5020113;28;20284;-59
2024/01/20 02:19:57;;;;;;;;;;;1.00;99.90;;;;;;5021460;28;19928;-59
2024/01/20 02:22:23;;;;;;;;;;;1.00;99.90;;;;;;5023123;28;19982;-59
2024/01/20 02:24:49;;;;;;;;;;;1.00;99.90;;;;;;5044721;28;20390;-59
2024/01/20 02:27:16;;;;;;;;;;;1.00;99.90;;;;;;5040347;28;20291;-60
2024/01/20 02:29:41;;;;;;;;;;;1.00;99.90;;;;;;5042400;28;20029;-59
2024/01/20 02:32:07;;;;;;;;;;;1.00;99.90;;;;;;5039331;28;19924;-59
2024/01/20 02:34:33;;;;;;;;;;;1.10;99.90;;;;;;5039476;28;19974;-59
2024/01/20 02:36:58;;;;;;;;;;;1.00;99.90;;;;;;5042503;28;19936;-59
2024/01/20 02:39:24;;;;;;;;;;;0.90;99.90;;;;;;5028255;28;19933;-59
2024/01/20 02:41:50;;;;;;;;;;;0.90;99.90;;;;;;5025113;28;20067;-59
2024/01/20 02:44:15;;;;;;;;;;;1.00;99.90;;;;;;5007170;28;20011;-59
2024/01/20 02:46:41;;;;;;;;;;;0.90;99.90;;;;;;5025817;28;19932;-59
2024/01/20 02:49:06;;;;;;;;;;;0.90;99.90;;;;;;5024081;28;20028;-59
2024/01/20 02:51:32;;;;;;;;;;;0.90;99.90;;;;;;5025615;28;19943;-59
2024/01/20 02:53:58;;;;;;;;;;;0.90;99.90;;;;;;5022664;28;19979;-59
2024/01/20 02:56:24;;;;;;;;;;;0.90;99.90;;;;;;5027213;28;20051;-59
2024/01/20 02:58:53;;;;;;;;;;;0.90;99.90;;;;;;5024640;28;19928;-57
2024/01/20 03:01:18;;;;;;;;;;;0.90;99.90;;;;;;5024170;28;19925;-59
2024/01/20 03:03:45;;;;;;;;;;;0.80;99.90;;;;;;5026681;28;19927;-59
2024/01/20 03:06:10;;;;;;;;;;;1.00;99.90;;;;;;5030568;28;19933;-59
2024/01/20 03:08:36;;;;;;;;;;;0.80;99.90;;;;;;5027547;28;20020;-59
2024/01/20 03:11:02;;;;;;;;;;;0.80;99.90;;;;;;5029014;28;19974;-59
2024/01/20 03:13:27;;;;;;;;;;;0.80;99.90;;;;;;5026579;28;19931;-58
2024/01/20 03:15:53;;;;;;;;;;;0.80;99.90;;;;;;5031852;28;20023;-59
2024/01/20 03:18:18;;;;;;;;;;;0.80;99.90;;;;;;5008918;28;19925;-58
2024/01/20 03:20:44;;;;;;;;;;;0.80;99.90;;;;;;5020589;28;19924;-59
2024/01/20 03:23:10;;;;;;;;;;;0.70;99.90;;;;;;5025022;28;19920;-59
2024/01/20 03:25:35;;;;;;;;;;;0.70;99.90;;;;;;5010787;28;19924;-59
2024/01/20 03:28:01;;;;;;;;;;;0.60;99.90;;;;;;5025356;28;19925;-59
2024/01/20 03:30:26;;;;;;;;;;;0.60;99.90;;;;;;5022609;28;19929;-59
2024/01/20 03:32:52;;;;;;;;;;;0.60;99.90;;;;;;5021480;28;19987;-59
2024/01/20 03:35:18;;;;;;;;;;;0.60;99.90;;;;;;5020867;28;19929;-59
2024/01/20 03:37:43;;;;;;;;;;;0.60;99.90;;;;;;5015637;28;20403;-59
2024/01/20 03:40:09;;;;;;;;;;;0.60;99.90;;;;;;4999972;28;20071;-59
2024/01/20 03:42:34;;;;;;;;;;;0.60;99.90;;;;;;5018624;28;20375;-59
2024/01/20 03:45:00;;;;;;;;;;;0.60;99.90;;;;;;5001043;28;20314;-59
2024/01/20 03:47:25;;;;;;;;;;;0.60;99.90;;;;;;5019815;28;19925;-58
2024/01/20 03:49:51;;;;;;;;;;;0.50;99.90;;;;;;5023794;28;19931;-59
2024/01/20 03:52:17;;;;;;;;;;;0.50;99.90;;;;;;5020538;28;19966;-58
2024/01/20 03:54:42;;;;;;;;;;;0.50;99.90;;;;;;5020646;28;20351;-60
2024/01/20 03:57:08;;;;;;;;;;;0.50;99.90;;;;;;5025682;28;19921;-60
2024/01/20 03:59:33;;;;;;;;;;;0.50;99.90;;;;;;5025752;28;19925;-58
2024/01/20 04:01:59;;;;;;;;;;;0.40;99.90;;;;;;5024392;28;19929;-59
2024/01/20 04:04:25;;;;;;;;;;;0.40;99.90;;;;;;5026297;28;19936;-60
2024/01/20 04:06:50;;;;;;;;;;;0.40;99.90;;;;;;5023490;28;20380;-59
2024/01/20 04:09:16;;;;;;;;;;;0.40;99.90;;;;;;5028895;28;20023;-59
2024/01/20 04:11:42;;;;;;;;;;;0.40;99.90;;;;;;5024765;28;19925;-60
2024/01/20 04:14:07;;;;;;;;;;;0.40;99.90;;;;;;5010563;28;19925;-59
2024/01/20 04:16:33;;;;;;;;;;;0.30;99.90;;;;;;5032117;28;19933;-60
2024/01/20 04:18:58;;;;;;;;;;;0.30;99.90;;;;;;5033600;28;20031;-60
2024/01/20 04:21:25;;;;;;;;;;;0.30;99.90;;;;;;5035102;28;19928;-59
2024/01/20 04:23:50;;;;;;;;;;;0.30;99.90;;;;;;5012625;28;19928;-60
2024/01/20 04:26:16;;;;;;;;;;;0.30;99.90;;;;;;5031598;28;20382;-59
2024/01/20 04:28:42;;;;;;;;;;;0.30;99.90;;;;;;5032674;28;19928;-58
2024/01/20 04:31:08;;;;;;;;;;;0.20;99.90;;;;;;5035901;28;19928;-59
2024/01/20 04:33:34;;;;;;;;;;;0.20;99.90;;;;;;5015753;28;21744;-58
2024/01/20 04:36:01;;;;;;;;;;;0.20;99.90;;;;;;5031321;28;20547;-59
2024/01/20 04:38:26;;;;;;;;;;;0.20;99.90;;;;;;5030564;28;19996;-59
2024/01/20 04:40:53;;;;;;;;;;;0.20;99.90;;;;;;5044906;28;19936;-59
2024/01/20 04:43:19;;;;;;;;;;;0.20;99.90;;;;;;5042694;28;21459;-58
2024/01/20 04:45:45;;;;;;;;;;;0.20;99.90;;;;;;5025868;28;19972;-59
2024/01/20 04:48:10;;;;;;;;;;;0.20;99.90;;;;;;5043007;28;19948;-58
2024/01/20 04:50:36;;;;;;;;;;;0.20;99.90;;;;;;5045442;28;20360;-59
2024/01/20 04:53:01;;;;;;;;;;;0.20;99.90;;;;;;5044065;28;21157;-58
2024/01/20 04:55:27;;;;;;;;;;;0.20;99.90;;;;;;5044107;28;19940;-60
2024/01/20 04:57:53;;;;;;;;;;;0.10;99.90;;;;;;5047163;28;20149;-59
2024/01/20 05:00:18;;;;;;;;;;;0.10;99.90;;;;;;5044212;28;19924;-59
2024/01/20 05:02:44;;;;;;;;;;;0.10;99.90;;;;;;5045641;28;20654;-59
2024/01/20 05:05:09;;;;;;;;;;;0.10;99.90;;;;;;5044428;28;19935;-59
2024/01/20 05:07:35;;;;;;;;;;;0.10;99.90;;;;;;5044071;28;19963;-59
2024/01/20 05:10:01;;;;;;;;;;;0.10;99.90;;;;;;5042966;28;20401;-59
2024/01/20 05:12:28;;;;;;;;;;;0.10;99.90;;;;;;5039306;28;20626;-59
2024/01/20 05:14:54;;;;;;;;;;;0.10;99.90;;;;;;5040214;28;19939;-58
2024/01/20 05:17:19;;;;;;;;;;;0.00;99.90;;;;;;5040770;28;19950;-57
2024/01/20 05:19:45;;;;;;;;;;;0.00;99.90;;;;;;5038668;28;19999;-59
2024/01/20 05:22:10;;;;;;;;;;;0.00;99.90;;;;;;5039860;28;20742;-59
2024/01/20 05:24:36;;;;;;;;;;;0.00;99.90;;;;;;5041556;28;19928;-59
2024/01/20 05:27:01;;;;;;;;;;;0.00;99.90;;;;;;5038100;28;19932;-59
2024/01/20 05:29:27;;;;;;;;;;;0.00;99.90;;;;;;5020237;28;19925;-59
2024/01/20 05:31:53;;;;;;;;;;;0.00;99.90;;;;;;5025130;28;20364;-58
2024/01/20 05:34:18;;;;;;;;;;;0.00;99.90;;;;;;5021280;28;20002;-58
2024/01/20 05:36:44;;;;;;;;;;;0.00;99.90;;;;;;5037409;28;19932;-59
2024/01/20 05:39:09;;;;;;;;;;;-0.10;99.90;;;;;;5027808;28;20035;-59
2024/01/20 05:41:35;;;;;;;;;;;-0.10;99.90;;;;;;5024456;28;19929;-58
2024/01/20 05:44:02;;;;;;;;;;;-0.10;99.90;;;;;;5025248;28;19929;-59
2024/01/20 05:46:28;;;;;;;;;;;-0.10;99.90;;;;;;5025073;28;19928;-59
2024/01/20 05:48:54;;;;;;;;;;;-0.10;99.90;;;;;;5026165;28;19925;-59
2024/01/20 05:51:19;;;;;;;;;;;-0.20;99.90;;;;;;5026051;28;19988;-59
2024/01/20 05:53:45;;;;;;;;;;;-0.10;99.90;;;;;;5032672;28;19928;-59
2024/01/20 05:56:11;;;;;;;;;;;-0.20;99.90;;;;;;5031383;28;19933;-59
2024/01/20 05:58:36;;;;;;;;;;;-0.20;99.90;;;;;;5026568;28;20107;-58
2024/01/20 06:01:02;;;;;;;;;;;-0.20;99.90;;;;;;5031497;28;19928;-58
2024/01/20 06:03:28;;;;;;;;;;;-0.20;99.90;;;;;;5021554;28;20300;-58
2024/01/20 06:05:53;;;;;;;;;;;-0.30;99.90;;;;;;5020570;28;20935;-59
2024/01/20 06:08:19;;;;;;;;;;;-0.30;99.90;;;;;;5015907;28;19928;-59
2024/01/20 06:10:45;;;;;;;;;;;-0.30;99.90;;;;;;5018222;28;19925;-58
2024/01/20 06:13:10;;;;;;;;;;;-0.30;99.90;;;;;;5022452;28;20019;-59
2024/01/20 06:15:36;;;;;;;;;;;-0.30;99.90;;;;;;5019115;28;20273;-59
2024/01/20 06:18:02;;;;;;;;;;;-0.30;99.90;;;;;;5019987;28;19924;-59
2024/01/20 06:20:27;;;;;;;;;;;-0.30;99.90;;;;;;5016743;28;20403;-58
2024/01/20 06:22:53;;;;;;;;;;;-0.40;99.90;;;;;;5020612;28;19920;-59
2024/01/20 06:25:19;;;;;;;;;;;-0.40;99.90;;;;;;5000651;28;20027;-59
2024/01/20 06:27:44;;;;;;;;;;;-0.40;99.90;;;;;;5022221;28;19925;-59
2024/01/20 06:30:10;;;;;;;;;;;-0.40;99.90;;;;;;5005109;28;20339;-59
2024/01/20 06:32:36;;;;;;;;;;;-0.40;99.90;;;;;;4996822;28;19929;-59
2024/01/20 06:35:01;;;;;;;;;;;-0.40;99.90;;;;;;5016932;28;20251;-58
2024/01/20 06:37:27;;;;;;;;;;;-0.50;99.90;;;;;;5020946;28;19925;-59
2024/01/20 06:39:52;;;;;;;;;;;-0.50;99.90;;;;;;5024099;28;19975;-59
2024/01/20 06:42:18;;;;;;;;;;;-0.50;99.90;;;;;;5005672;28;19936;-59
2024/01/20 06:44:44;;;;;;;;;;;-0.50;99.90;;;;;;5023640;28;20385;-59
2024/01/20 06:47:11;;;;;;;;;;;-0.50;99.90;;;;;;5024262;28;19925;-59
2024/01/20 06:49:40;;;;;;;;;;;-0.50;99.90;;;;;;5029426;28;19967;-59
2024/01/20 06:52:05;;;;;;;;;;;-0.50;99.90;;;;;;5006518;28;20550;-59
2024/01/20 06:54:31;;;;;;;;;;;-0.50;99.90;;;;;;5004137;28;20425;-59
2024/01/20 06:56:57;;;;;;;;;;;-0.40;99.90;;;;;;5026524;28;19921;-59
2024/01/20 06:59:22;;;;;;;;;;;-0.50;99.90;;;;;;5027993;28;19924;-58
2024/01/20 07:01:48;;;;;;;;;;;-0.50;99.90;;;;;;5027464;28;19921;-59
2024/01/20 07:04:14;;;;;;;;;;;-0.50;99.90;;;;;;5027705;28;19962;-59
2024/01/20 07:06:39;;;;;;;;;;;-0.50;99.90;;;;;;5007536;28;19929;-58
2024/01/20 07:09:05;;;;;;;;;;;-0.50;99.90;;;;;;5033810;28;19925;-59
2024/01/20 07:11:34;;;;;;;;;;;-0.60;99.90;;;;;;5032477;28;19949;-57
2024/01/20 07:13:59;;;;;;;;;;;-0.60;99.90;;;;;;5034880;28;19976;-58
2024/01/20 07:16:25;;;;;;;;;;;-0.60;99.90;;;;;;5034629;28;20428;-59
2024/01/20 07:18:51;;;;;;;;;;;-0.60;99.90;;;;;;5036438;28;19933;-59
2024/01/20 07:21:16;;;;;;;;;;;-0.60;99.90;;;;;;5033681;28;19928;-58
2024/01/20 07:23:42;;;;;;;;;;;-0.50;99.90;;;;;;5032025;28;19979;-58
2024/01/20 07:26:08;;;;;;;;;;;-0.60;99.90;;;;;;5015121;28;19921;-59
2024/01/20 07:28:33;;;;;;;;;;;-0.60;99.90;;;;;;5031339;28;20008;-59
2024/01/20 07:30:59;;;;;;;;;;;-0.50;99.90;;;;;;5033071;28;20012;-59
2024/01/20 07:33:24;;;;;;;;;;;-0.60;99.90;;;;;;5031934;28;19925;-58
2024/01/20 07:35:50;;;;;;;;;;;-0.50;99.90;;;;;;5030816;28;20290;-59
2024/01/20 07:38:16;;;;;;;;;;;-0.50;99.90;;;;;;5011522;28;19929;-58
2024/01/20 07:40:41;;;;;;;;;;;-0.50;99.90;;;;;;5031171;28;20425;-59
2024/01/20 07:43:07;;;;;;;;;;;-0.50;99.90;;;;;;5029044;28;19982;-59
2024/01/20 07:45:33;;;;;;;;;;;-0.50;99.90;;;;;;5023018;28;19925;-58
2024/01/20 07:47:58;;;;;;;;;;;-0.40;99.90;;;;;;5027245;28;20558;-59
2024/01/20 07:50:24;;;;;;;;;;;-0.40;99.90;;;;;;5025262;28;19974;-58
2024/01/20 07:52:50;;;;;;;;;;;-0.40;99.90;;;;;;5026236;28;20307;-59
2024/01/20 07:55:15;;;;;;;;;;;-0.40;99.90;;;;;;5024993;28;19978;-59
2024/01/20 07:57:41;;;;;;;;;;;-0.40;99.90;;;;;;5010854;28;19936;-59
2024/01/20 08:00:07;;;;;;;;;;;-0.30;99.90;;;;;;5026376;28;20023;-57
2024/01/20 08:02:33;;;;;;;;;;;-0.30;99.90;;;;;;5027003;28;20031;-59
2024/01/20 08:04:59;;;;;;;;;;;-0.30;99.90;;;;;;5010793;28;19931;-59
2024/01/20 08:07:25;;;;;;;;;;;-0.20;99.90;;;;;;5028377;28;20000;-59
2024/01/20 08:09:50;;;;;;;;;;;-0.20;99.90;;;;;;5009359;28;19929;-60
2024/01/20 08:12:16;;;;;;;;;;;-0.20;99.90;;;;;;5023536;28;20282;-59
2024/01/20 08:14:41;;;;;;;;;;;-0.10;99.90;;;;;;5024667;28;20079;-58
2024/01/20 08:17:07;;;;;;;;;;;-0.10;99.90;;;;;;5020306;28;19925;-58
2024/01/20 08:19:32;;;;;;;;;;;0.00;99.90;;;;;;5023379;28;20379;-59
2024/01/20 08:21:58;;;;;;;;;;;0.00;99.90;;;;;;5001865;28;19929;-59
2024/01/20 08:24:24;;;;;;;;;;;0.00;99.90;;;;;;5005682;28;19950;-58
2024/01/20 08:26:49;;;;;;;;;;;0.00;99.90;;;;;;5017905;28;19925;-59
2024/01/20 08:29:17;;;;;;;;;;;0.00;99.90;;;;;;5025410;28;19964;-58
2024/01/20 08:31:42;;;;;;;;;;;0.10;99.90;;;;;;5037543;28;19984;-59
2024/01/20 08:34:08;;;;;;;;;;;0.10;99.90;;;;;;5035074;28;20348;-59
2024/01/20 08:36:34;;;;;;;;;;;0.20;99.90;;;;;;5034152;28;19935;-58
2024/01/20 08:38:59;;;;;;;;;;;0.20;99.90;;;;;;5043580;28;19998;-59
2024/01/20 08:41:25;;;;;;;;;;;0.20;99.90;;;;;;5049706;28;19982;-59
2024/01/20 08:43:51;;;;;;;;;;;0.30;99.90;;;;;;5057222;28;20007;-58
2024/01/20 08:46:16;;;;;;;;;;;0.30;99.90;;;;;;5071931;28;20347;-59
2024/01/20 08:48:42;;;;;;;;;;;0.30;99.90;;;;;;5034563;28;20983;-59
2024/01/20 08:51:08;;;;;;;;;;;0.30;99.90;;;;;;5021790;28;19924;-59
2024/01/20 08:53:33;;;;;;;;;;;0.40;99.90;;;;;;5024921;28;20481;-59
2024/01/20 08:56:00;;;;;;;;;;;0.40;99.90;;;;;;5029392;28;21501;-58
2024/01/20 08:58:25;;;;;;;;;;;0.40;99.90;;;;;;5042347;28;19924;-59
2024/01/20 09:00:51;;;;;;;;;;;0.40;99.90;;;;;;5029511;28;19932;-59
2024/01/20 09:03:17;;;;;;;;;;;0.40;99.90;;;;;;5045406;28;19968;-59
2024/01/20 09:05:42;;;;;;;;;;;0.40;99.90;;;;;;5044146;28;19929;-59
2024/01/20 09:08:09;;;;;;;;;;;0.40;99.90;;;;;;5048565;28;20039;-59
2024/01/20 09:10:36;;;;;;;;;;;0.50;99.90;;;;;;5045719;28;19929;-59
2024/01/20 09:13:02;;;;;;;;;;;0.50;99.90;;;;;;5049373;28;20020;-59
2024/01/20 09:15:28;;;;;;;;;;;0.50;99.90;;;;;;5051943;28;20056;-57
2024/01/20 09:17:54;;;;;;;;;;;0.50;99.90;;;;;;5049642;28;19920;-59
2024/01/20 09:20:20;;;;;;;;;;;0.50;99.90;;;;;;5045217;28;19952;-58
2024/01/20 09:22:46;;;;;;;;;;;0.50;99.90;;;;;;5048000;28;19920;-59
2024/01/20 09:25:11;;;;;;;;;;;0.50;99.90;;;;;;5045861;28;19931;-59
2024/01/20 09:27:37;;;;;;;;;;;0.50;99.90;;;;;;5044879;28;20302;-59
2024/01/20 09:30:04;;;;;;;;;;;0.60;99.90;;;;;;5044187;28;20466;-59
2024/01/20 09:32:33;;;;;;;;;;;0.60;99.90;;;;;;5033164;28;19935;-59
2024/01/20 09:35:05;;;;;;;;;;;0.60;99.90;;;;;;5020826;28;19972;-59
2024/01/20 09:37:31;;;;;;;;;;;0.60;99.90;;;;;;5052883;28;20466;-59
2024/01/20 09:39:57;;;;;;;;;;;0.60;99.90;;;;;;5033011;28;20050;-59
2024/01/20 09:42:22;;;;;;;;;;;0.60;99.90;;;;;;5053012;28;20054;-59
2024/01/20 09:44:49;;;;;;;;;;;0.70;99.90;;;;;;5055014;28;20027;-58
2024/01/20 09:47:14;;;;;;;;;;;0.70;99.90;;;;;;5055320;28;19924;-58
2024/01/20 09:49:40;;;;;;;;;;;0.70;99.90;;;;;;5051167;28;20603;-59
2024/01/20 09:52:14;;;;;;;;;;;0.70;99.90;;;;;;5049321;28;19929;-59
2024/01/20 09:54:47;;;;;;;;;;;0.70;99.90;;;;;;5044793;28;19942;-58
2024/01/20 09:57:13;;;;;;;;;;;0.90;99.90;;;;;;5031717;28;20047;-59
2024/01/20 09:59:41;;;;;;;;;;;0.80;99.90;;;;;;5050366;28;19931;-58
2024/01/20 10:02:10;;;;;;;;;;;0.90;99.90;;;;;;5030127;28;21292;-58
2024/01/20 10:04:39;;;;;;;;;;;0.90;99.90;;;;;;5054100;28;20291;-59
2024/01/20 10:07:04;;;;;;;;;;;1.00;99.90;;;;;;5045546;28;20487;-59
2024/01/20 10:09:30;;;;;;;;;;;1.00;99.90;;;;;;5059541;28;20413;-59
2024/01/20 10:11:56;;;;;;;;;;;1.00;99.90;;;;;;5048985;28;19924;-58
2024/01/20 10:14:21;;;;;;;;;;;1.10;99.90;;;;;;5050030;28;19987;-57
2024/01/20 10:16:47;;;;;;;;;;;1.10;99.90;;;;;;5049457;28;19932;-58
2024/01/20 10:19:13;;;;;;;;;;;1.20;99.90;;;;;;5027933;28;19924;-58
2024/01/20 10:21:42;;;;;;;;;;;1.10;99.90;;;;;;5047486;28;20299;-58
2024/01/20 10:24:08;;;;;;;;;;;1.20;99.90;;;;;;5026914;28;19933;-59
2024/01/20 10:26:40;;;;;;;;;;;1.20;99.90;;;;;;5043540;28;20396;-59
2024/01/20 10:29:05;;;;;;;;;;;1.20;99.90;;;;;;5048181;28;19976;-59
2024/01/20 10:31:31;;;;;;;;;;;1.20;99.90;;;;;;5026095;28;20501;-58
2024/01/20 10:33:57;;;;;;;;;;;1.20;99.90;;;;;;5038155;28;20034;-58
2024/01/20 10:36:24;;;;;;;;;;;1.30;99.90;;;;;;5042492;28;20007;-58
2024/01/20 10:38:52;;;;;;;;;;;1.30;99.90;;;;;;5043167;28;19938;-58
2024/01/20 10:41:19;;;;;;;;;;;1.30;99.90;;;;;;5047525;28;19928;-59
2024/01/20 10:43:48;;;;;;;;;;;1.30;99.90;;;;;;5020952;28;19925;-57
2024/01/20 10:46:24;;;;;;;;;;;1.30;99.90;;;;;;5030768;28;20542;-59
2024/01/20 10:48:52;;;;;;;;;;;1.30;99.90;;;;;;5037865;28;19931;-58
2024/01/20 10:51:21;;;;;;;;;;;1.30;99.90;;;;;;5041610;28;20067;-59
2024/01/20 10:53:48;;;;;;;;;;;1.30;99.90;;;;;;5040262;28;19947;-58
2024/01/20 10:56:14;;;;;;;;;;;1.40;99.90;;;;;;5047174;28;20434;-59
2024/01/20 10:58:43;;;;;;;;;;;1.40;99.90;;;;;;5041337;28;19939;-59
2024/01/20 11:01:09;;;;;;;;;;;1.40;99.90;;;;;;5035100;28;20455;-58
2024/01/20 11:03:35;;;;;;;;;;;1.40;99.90;;;;;;5057074;28;20015;-59
2024/01/20 11:06:01;;;;;;;;;;;1.50;99.90;;;;;;5054409;28;19924;-59
2024/01/20 11:08:26;;;;;;;;;;;1.50;99.90;;;;;;5044947;28;19925;-59
2024/01/20 11:10:53;;;;;;;;;;;1.60;99.90;;;;;;5054837;28;19928;-58
2024/01/20 11:13:23;;;;;;;;;;;1.60;99.90;;;;;;5046118;28;19990;-59
2024/01/20 11:15:49;;;;;;;;;;;1.50;99.90;;;;;;5051837;28;20055;-59
2024/01/20 11:18:21;;;;;;;;;;;1.50;99.90;;;;;;5048004;28;19924;-58
2024/01/20 11:20:55;;;;;;;;;;;1.50;99.90;;;;;;5025005;28;19932;-58
2024/01/20 11:23:21;;;;;;;;;;;1.50;99.90;;;;;;5051681;28;19924;-58
2024/01/20 11:25:47;;;;;;;;;;;1.60;99.90;;;;;;5052316;28;19924;-59
2024/01/20 11:28:21;;;;;;;;;;;1.60;99.90;;;;;;5046921;28;19924;-58
2024/01/20 11:30:47;;;;;;;;;;;1.60;99.90;;;;;;5028838;28;19960;-59
2024/01/20 11:33:15;;;;;;;;;;;1.60;99.90;;;;;;5048517;28;20015;-58
2024/01/20 11:35:41;;;;;;;;;;;1.60;99.90;;;;;;5048103;28;19940;-58
2024/01/20 11:38:08;;;;;;;;;;;1.60;99.90;;;;;;5022463;28;19929;-58
2024/01/20 11:40:34;;;;;;;;;;;1.60;99.90;;;;;;5046079;28;19963;-58
2024/01/20 11:43:06;;;;;;;;;;;1.70;99.90;;;;;;5044808;28;19924;-58
2024/01/20 11:45:32;;;;;;;;;;;1.70;99.90;;;;;;5025414;28;19979;-58
2024/01/20 11:47:57;;;;;;;;;;;1.70;99.90;;;;;;5032765;28;20536;-57
2024/01/20 11:50:23;;;;;;;;;;;1.70;99.90;;;;;;5047445;28;19932;-58
2024/01/20 11:52:49;;;;;;;;;;;1.70;99.90;;;;;;5051259;28;19929;-59
2024/01/20 11:55:14;;;;;;;;;;;1.70;99.90;;;;;;5049237;28;20302;-59
2024/01/20 11:57:40;;;;;;;;;;;1.70;99.90;;;;;;5041533;28;20495;-59
2024/01/20 12:00:06;;;;;;;;;;;1.70;99.90;;;;;;5041440;28;20315;-59
2024/01/20 12:02:32;;;;;;;;;;;1.70;99.90;;;;;;5041441;28;19934;-59
2024/01/20 12:04:58;;;;;;;;;;;1.80;99.90;;;;;;5039448;28;19989;-59
2024/01/20 12:07:23;;;;;;;;;;;1.70;99.90;;;;;;5042123;28;19924;-59
2024/01/20 12:09:50;;;;;;;;;;;1.80;99.90;;;;;;5044439;28;19928;-59
2024/01/20 12:12:16;;;;;;;;;;;1.80;99.90;;;;;;5044882;28;19925;-59
2024/01/20 12:14:45;;;;;;;;;;;1.80;99.90;;;;;;5027795;28;21534;-59
2024/01/20 12:17:11;;;;;;;;;;;1.90;99.90;;;;;;5043736;28;20346;-59
2024/01/20 12:19:40;;;;;;;;;;;1.90;99.90;;;;;;5031859;28;20367;-59
2024/01/20 12:22:06;;;;;;;;;;;2.00;99.90;;;;;;5049594;28;20284;-58
2024/01/20 12:24:32;;;;;;;;;;;2.00;99.90;;;;;;5034088;28;19936;-59
2024/01/20 12:26:58;;;;;;;;;;;2.10;99.90;;;;;;5034010;28;19924;-59
2024/01/20 12:29:23;;;;;;;;;;;2.10;99.90;;;;;;5051614;28;21433;-60
2024/01/20 12:31:49;;;;;;;;;;;2.20;99.90;;;;;;5053829;28;19931;-58
2024/01/20 12:34:16;;;;;;;;;;;2.20;99.90;;;;;;5032015;28;20417;-59
2024/01/20 12:36:42;;;;;;;;;;;2.30;99.90;;;;;;5049365;28;19931;-59
2024/01/20 12:39:07;;;;;;;;;;;2.30;99.90;;;;;;5015573;28;19933;-59
2024/01/20 12:41:33;;;;;;;;;;;2.40;99.90;;;;;;5028364;28;20383;-59
2024/01/20 12:43:59;;;;;;;;;;;2.40;99.90;;;;;;5022385;28;19929;-59
2024/01/20 12:46:24;;;;;;;;;;;2.40;99.90;;;;;;4983484;28;20902;-59
2024/01/20 12:48:50;;;;;;;;;;;2.40;99.90;;;;;;5003197;28;20276;-58
2024/01/20 12:51:16;;;;;;;;;;;2.40;99.90;;;;;;5025576;28;19948;-59
2024/01/20 12:53:41;;;;;;;;;;;2.50;99.90;;;;;;5011441;28;19935;-59
2024/01/20 12:56:07;;;;;;;;;;;2.50;99.90;;;;;;5007583;28;20028;-58
2024/01/20 12:58:32;;;;;;;;;;;2.50;99.90;;;;;;5003932;28;19929;-59
2024/01/20 13:00:58;;;;;;;;;;;2.50;99.90;;;;;;5023255;28;20064;-59
2024/01/20 13:03:23;;;;;;;;;;;2.60;99.90;;;;;;5029073;28;19925;-58
2024/01/20 13:05:49;;;;;;;;;;;2.60;99.90;;;;;;5009427;28;19955;-59
2024/01/20 13:08:15;;;;;;;;;;;2.60;99.90;;;;;;5026673;28;19924;-59
2024/01/20 13:10:45;;;;;;;;;;;2.70;99.90;;;;;;5024944;28;20164;-59
2024/01/20 13:13:11;;;;;;;;;;;2.70;99.90;;;;;;5024701;28;20469;-59
2024/01/20 13:15:36;;;;;;;;;;;2.70;99.90;;;;;;5007897;28;19928;-59
2024/01/20 13:18:02;;;;;;;;;;;2.70;99.90;;;;;;5026026;28;20360;-57
2024/01/20 13:20:27;;;;;;;;;;;2.70;99.90;;;;;;5013483;28;19928;-59
2024/01/20 13:22:53;;;;;;;;;;;2.70;99.90;;;;;;5009849;28;19925;-59
2024/01/20 13:25:19;;;;;;;;;;;2.80;99.90;;;;;;5029738;28;20001;-58
2024/01/20 13:27:44;;;;;;;;;;;2.80;99.90;;;;;;5027154;28;20300;-59
2024/01/20 13:30:10;;;;;;;;;;;2.90;99.90;;;;;;5029184;28;20015;-59
2024/01/20 13:32:36;;;;;;;;;;;2.90;99.90;;;;;;5028847;28;19990;-58
2024/01/20 13:35:02;;;;;;;;;;;2.80;99.90;;;;;;5008543;28;19929;-59
2024/01/20 13:37:28;;;;;;;;;;;2.90;99.90;;;;;;5007953;28;19936;-58
2024/01/20 13:39:53;;;;;;;;;;;2.80;99.90;;;;;;5045937;28;19928;-58
2024/01/20 13:42:19;;;;;;;;;;;2.70;99.90;;;;;;5044890;28;19925;-59
2024/01/20 13:44:45;;;;;;;;;;;2.70;99.90;;;;;;5048935;28;19925;-58
2024/01/20 13:47:10;;;;;;;;;;;2.80;99.90;;;;;;5047102;28;19928;-59
2024/01/20 13:49:36;;;;;;;;;;;2.80;99.90;;;;;;5043412;28;19925;-59
2024/01/20 13:52:01;;;;;;;;;;;2.80;99.90;;;;;;5040678;28;19939;-59
2024/01/20 13:54:27;;;;;;;;;;;2.80;99.90;;;;;;5044404;28;19925;-58
2024/01/20 13:56:53;;;;;;;;;;;2.80;99.90;;;;;;5065462;28;19935;-59
2024/01/20 13:59:18;;;;;;;;;;;2.80;99.90;;;;;;5032059;28;20023;-59
2024/01/20 14:01:44;;;;;;;;;;;2.70;99.90;;;;;;5049910;28;19931;-59
2024/01/20 14:04:10;;;;;;;;;;;2.80;99.90;;;;;;5046032;28;20405;-59
2024/01/20 14:06:35;;;;;;;;;;;2.80;99.90;;;;;;5048813;28;20084;-59
2024/01/20 14:09:03;;;;;;;;;;;2.80;99.90;;;;;;5050988;28;19928;-59
2024/01/20 14:11:28;;;;;;;;;;;2.80;99.90;;;;;;5034682;28;20297;-59
2024/01/20 14:13:54;;;;;;;;;;;2.80;99.90;;;;;;5050566;28;19925;-59
2024/01/20 14:16:20;;;;;;;;;;;2.80;99.90;;;;;;5047390;28;20016;-59
2024/01/20 14:18:45;;;;;;;;;;;2.70;99.90;;;;;;5028133;28;19924;-58
2024/01/20 14:21:11;;;;;;;;;;;2.70;99.90;;;;;;5048074;28;20409;-59